EDLP

Paderborn Lippstadt Airport

Paderborn, Germany
METAR EDLP 220020Z 07005KT CAVOK M05/M08 Q1024
Observed Flight Rules
Feb-22 @ 00:20 UTC (4 hours ago) Visual Flight Rules
Wind Visibility Clouds
70° at 5 knots 10,000+ meters
  • Clear skies
Temperatures Readings
Current -5°C / 23°F
Dewpoint -8°C / 18°F
Humidity 80%
Altimeter 30.24" Hg
Pressure 1024 hPa
Elevation 213
METAR EDLP 220020Z 07005KT CAVOK M05/M08 Q1024
Observed Flight Rules
Feb-22 @ 00:20 UTC
(4 hours ago)
VFR
Wind Visibility
70° at 5 knots 10,000+ meters
Clouds
  • Clear skies
Temperature Dewpoint
-5°C / 23°F -8°C / 18°F
Humidity Altimeter Pressure
80% 30.24" Hg 1024 hPa